DUCK FRF 26m, NC - 430

GPS Positions

GPS Time
Latitude
Degrees
Longitude
Degrees
Gap
 
Distance
NM
Speed
Knots
Direction
Degrees
2014 Apr 29, 00:25 36.25508° -75.59149° 30 min 0.01 0.01
98°
2014 Apr 28, 23:55 36.25508° -75.59156° 30 min 0.01 0.00
2014 Apr 28, 23:25 36.25508° -75.59156° 30 min 0.01 0.00
180°
2014 Apr 28, 22:55 36.25508° -75.59156° 30 min 0.01 0.00
110°
2014 Apr 28, 22:25 36.25510° -75.59160° 30 min 0.01 0.06
323°
2014 Apr 28, 21:55 36.25471° -75.59124° 30 min 0.02 0.04
134°
2014 Apr 28, 21:25 36.25492° -75.59151° 30 min 0.00 0.01
166°
2014 Apr 28, 20:55 36.25500° -75.59154° 30 min 0.01 0.00
90°
2014 Apr 28, 20:25 36.25500° -75.59156° 30 min 0.01 0.01
258°
2014 Apr 28, 19:55 36.25501° -75.59149° 30 min 0.01 0.00
2014 Apr 28, 19:25 36.25500° -75.59149° 30 min 0.01 0.00
340°
2014 Apr 28, 18:55 36.25497° -75.59148° 30 min 0.00 0.00
329°
2014 Apr 28, 18:25 36.25494° -75.59145° 30 min 0.00 0.00
270°
2014 Apr 28, 17:55 36.25494° -75.59143° 30 min 0.00 0.00
2014 Apr 28, 17:25 36.25492° -75.59143° 30 min 0.00 0.00
302°
2014 Apr 28, 16:55 36.25491° -75.59141° 30 min 0.00 0.00
270°
2014 Apr 28, 16:25 36.25491° -75.59137° 30 min 0.00 0.01
69°
2014 Apr 28, 15:55 36.25489° -75.59143° 30 min 0.00 0.01
238°
2014 Apr 28, 15:25 36.25492° -75.59137° 30 min 0.00 0.00
133°
2014 Apr 28, 14:55 36.25494° -75.59138° 30 min 0.00 0.00
73°
2014 Apr 28, 14:25 36.25492° -75.59143° 30 min 0.00 0.00
180°
2014 Apr 28, 13:55 36.25494° -75.59143° 30 min 0.00 0.00
122°
2014 Apr 28, 13:25 36.25495° -75.59145° 30 min 0.00 0.00
2014 Apr 28, 12:55 36.25495° -75.59145° 30 min 0.00 0.00
122°
2014 Apr 28, 12:25 36.25496° -75.59148° 30 min 0.00 0.00
2014 Apr 28, 11:55 36.25496° -75.59148° 30 min 0.00 0.01
180°
2014 Apr 28, 11:25 36.25500° -75.59148° 30 min 0.00 0.01
16°
2014 Apr 28, 10:55 36.25496° -75.59149° 30 min 0.00 0.00
2014 Apr 28, 10:25 36.25496° -75.59149° 30 min 0.00 0.00
180°
2014 Apr 28, 09:55 36.25498° -75.59149° 30 min 0.00 0.00
122°
2014 Apr 28, 09:25 36.25499° -75.59151° 30 min 0.01 0.00
180°
2014 Apr 28, 08:55 36.25500° -75.59151° 30 min 0.01 0.01
344°
2014 Apr 28, 08:25 36.25494° -75.59149° 30 min 0.00 0.00
307°
2014 Apr 28, 07:55 36.25491° -75.59145° 30 min 0.00 0.00
316°
2014 Apr 28, 07:25 36.25489° -75.59143° 30 min 0.00 0.00
180°
2014 Apr 28, 06:55 36.25491° -75.59143° 30 min 0.00 0.01
302°
2014 Apr 28, 06:25 36.25488° -75.59138° 30 min 0.00 0.00
270°
2014 Apr 28, 05:55 36.25488° -75.59135° 30 min 0.01 0.00
238°
2014 Apr 28, 05:25 36.25489° -75.59132° 30 min 0.01 0.00
2014 Apr 28, 04:55 36.25489° -75.59132° 30 min 0.01 0.00
238°
2014 Apr 28, 04:25 36.25491° -75.59130° 30 min 0.01 0.00
248°
2014 Apr 28, 03:55 36.25491° -75.59128° 30 min 0.01 0.00
90°
2014 Apr 28, 03:25 36.25491° -75.59130° 30 min 0.01 0.01
180°
2014 Apr 28, 02:55 36.25497° -75.59130° 30 min 0.01 0.00
2014 Apr 28, 02:25 36.25494° -75.59130° 30 min 0.01 0.00
302°
2014 Apr 28, 01:55 36.25492° -75.59128° 30 min 0.01 0.00
180°
2014 Apr 28, 01:25 36.25494° -75.59128° 30 min 0.01 0.00
2014 Apr 28, 00:55 36.25492° -75.59128° 30 min 0.01 0.00
63°
2014 Apr 28, 00:25 36.25491° -75.59132° 30 min 0.01 0.00
2014 Apr 27, 23:55 36.25491° -75.59132° 30 min 0.01 0.01
180°
2014 Apr 27, 23:25 36.25495° -75.59132° 30 min 0.01 0.00
39°
2014 Apr 27, 22:55 36.25492° -75.59135° 30 min 0.01 0.00
58°
2014 Apr 27, 22:25 36.25491° -75.59137° 30 min 0.00 0.00
90°
2014 Apr 27, 21:55 36.25491° -75.59138° 30 min 0.00 0.00
2014 Apr 27, 21:25 36.25491° -75.59138° 30 min 0.00 0.00
141°
2014 Apr 27, 20:55 36.25494° -75.59141° 30 min 0.00 0.00
302°
2014 Apr 27, 20:25 36.25492° -75.59138° 30 min 0.00 0.00
2014 Apr 27, 19:55 36.25491° -75.59138° 30 min 0.00 0.00
90°
2014 Apr 27, 19:25 36.25491° -75.59141° 30 min 0.00 0.00
2014 Apr 27, 18:55 36.25489° -75.59141° 30 min 0.00 0.01
180°
2014 Apr 27, 18:25 36.25495° -75.59141° 30 min 0.00 0.01
336°
2014 Apr 27, 17:55 36.25491° -75.59138° 30 min 0.00 0.00
2014 Apr 27, 17:25 36.25491° -75.59138° 30 min 0.00 0.00
332°
2014 Apr 27, 16:55 36.25488° -75.59137° 30 min 0.00 0.00
270°
2014 Apr 27, 16:25 36.25488° -75.59135° 30 min 0.01 0.00
2014 Apr 27, 15:55 36.25488° -75.59135° 30 min 0.01 0.01
2014 Apr 27, 15:25 36.25480° -75.59135° 30 min 0.01 0.01
66°
2014 Apr 27, 14:55 36.25475° -75.59148° 30 min 0.01 0.02
216°
2014 Apr 27, 14:25 36.25487° -75.59137° 30 min 0.01 0.00
238°
2014 Apr 27, 13:55 36.25488° -75.59135° 30 min 0.01 0.01
319°
2014 Apr 27, 13:25 36.25484° -75.59130° 30 min 0.01 0.00
90°
2014 Apr 27, 12:55 36.25484° -75.59135° 30 min 0.01 0.01
135°
2014 Apr 27, 12:25 36.25487° -75.59138° 30 min 0.00 0.00
2014 Apr 27, 11:55 36.25486° -75.59138° 30 min 0.00 0.00
233°
2014 Apr 27, 11:25 36.25488° -75.59135° 30 min 0.01 0.00
180°
2014 Apr 27, 10:55 36.25489° -75.59135° 30 min 0.01 0.01
302°
2014 Apr 27, 10:25 36.25487° -75.59130° 30 min 0.01 0.01
2014 Apr 27, 09:55 36.25482° -75.59130° 30 min 0.01 0.00
152°
2014 Apr 27, 09:25 36.25485° -75.59132° 30 min 0.01 0.01
156°
2014 Apr 27, 08:55 36.25494° -75.59137° 30 min 0.00 0.00
321°
2014 Apr 27, 08:25 36.25491° -75.59135° 30 min 0.01 0.01
238°
2014 Apr 27, 07:55 36.25494° -75.59130° 30 min 0.01 0.00
211°
2014 Apr 27, 07:25 36.25497° -75.59128° 30 min 0.01 0.00
250°
2014 Apr 27, 06:55 36.25498° -75.59124° 30 min 0.01 0.01
238°
2014 Apr 27, 06:25 36.25500° -75.59119° 30 min 0.01 0.00
270°
2014 Apr 27, 05:55 36.25500° -75.59117° 30 min 0.01 0.00
211°
2014 Apr 27, 05:25 36.25503° -75.59115° 30 min 0.02 0.00
2014 Apr 27, 04:55 36.25503° -75.59115° 30 min 0.02 0.01
24°
2014 Apr 27, 04:25 36.25499° -75.59117° 30 min 0.01 0.00
2014 Apr 27, 03:55 36.25499° -75.59117° 30 min 0.01 0.01
204°
2014 Apr 27, 03:25 36.25503° -75.59115° 30 min 0.02 0.01
257°
2014 Apr 27, 02:55 36.25504° -75.59109° 30 min 0.02 0.01
80°
2014 Apr 27, 02:25 36.25503° -75.59117° 30 min 0.02 0.00
2014 Apr 27, 01:55 36.25501° -75.59117° 30 min 0.01 0.00
90°
2014 Apr 27, 01:25 36.25501° -75.59119° 30 min 0.01 0.00
90°
2014 Apr 27, 00:55 36.25501° -75.59124° 30 min 0.01 0.00
2014 Apr 27, 00:25 36.25498° -75.59124° 30 min 0.01 0.01
45°
2014 Apr 26, 23:55 36.25495° -75.59128° 30 min 0.01 0.00
136°
2014 Apr 26, 23:25 36.25497° -75.59130° 30 min 0.01 0.01
50°
2014 Apr 26, 22:55 36.25494° -75.59135° 30 min 0.01 0.00
180°
2014 Apr 26, 22:25 36.25496° -75.59135° 30 min 0.01 0.00
70°
2014 Apr 26, 21:55 36.25495° -75.59138° 30 min 0.00 0.00
2014 Apr 26, 21:25 36.25495° -75.59138° 30 min 0.00 0.00
90°
2014 Apr 26, 20:55 36.25495° -75.59143° 30 min 0.00 0.00
2014 Apr 26, 20:25 36.25492° -75.59143° 30 min 0.00 0.00
2014 Apr 26, 19:55 36.25491° -75.59143° 30 min 0.00 0.00
2014 Apr 26, 19:25 36.25491° -75.59143° 30 min 0.00 0.00
63°
2014 Apr 26, 18:55 36.25489° -75.59148° 30 min 0.00 0.00
47°
2014 Apr 26, 18:25 36.25488° -75.59149° 30 min 0.00 0.00
313°
2014 Apr 26, 17:55 36.25487° -75.59148° 30 min 0.00 0.00
2014 Apr 26, 17:25 36.25484° -75.59148° 30 min 0.00 0.00
180°
2014 Apr 26, 16:55 36.25486° -75.59148° 30 min 0.00 0.00
316°
2014 Apr 26, 16:25 36.25484° -75.59145° 30 min 0.00 0.01
260°
2014 Apr 26, 15:55 36.25485° -75.59137° 30 min 0.01 0.00
180°
2014 Apr 26, 15:25 36.25486° -75.59137° 30 min 0.01 0.00
33°
2014 Apr 26, 14:55 36.25484° -75.59138° 30 min 0.01 0.00
227°
2014 Apr 26, 14:25 36.25485° -75.59137° 30 min 0.01 0.00
180°
2014 Apr 26, 13:55 36.25486° -75.59137° 30 min 0.01 0.00
180°
2014 Apr 26, 13:25 36.25487° -75.59137° 30 min 0.01 0.01
325°
2014 Apr 26, 12:55 36.25482° -75.59132° 30 min 0.01 0.00
122°
2014 Apr 26, 12:25 36.25483° -75.59135° 30 min 0.01 0.00
122°
2014 Apr 26, 11:55 36.25484° -75.59137° 30 min 0.01 0.01
302°
2014 Apr 26, 11:25 36.25482° -75.59132° 30 min 0.01 0.00
180°
2014 Apr 26, 10:55 36.25484° -75.59132° 30 min 0.01 0.00
122°
2014 Apr 26, 10:25 36.25485° -75.59135° 30 min 0.01 0.00
248°
2014 Apr 26, 09:55 36.25486° -75.59132° 30 min 0.01 0.00
270°
2014 Apr 26, 09:25 36.25486° -75.59130° 30 min 0.01 0.00
284°
2014 Apr 26, 08:55 36.25485° -75.59126° 30 min 0.01 0.00
104°
2014 Apr 26, 08:25 36.25486° -75.59130° 30 min 0.01 0.01
276°
2014 Apr 26, 07:55 36.25485° -75.59122° 30 min 0.01 0.01
197°
2014 Apr 26, 07:25 36.25491° -75.59119° 30 min 0.01 0.01
90°
2014 Apr 26, 06:55 36.25491° -75.59126° 30 min 0.01 0.01
270°
2014 Apr 26, 06:25 36.25491° -75.59115° 30 min 0.01 0.00
152°
2014 Apr 26, 05:55 36.25495° -75.59117° 30 min 0.01 0.00
149°
2014 Apr 26, 05:25 36.25498° -75.59119° 30 min 0.01 0.00
238°
2014 Apr 26, 04:55 36.25499° -75.59117° 30 min 0.01 0.00
2014 Apr 26, 04:25 36.25499° -75.59117° 30 min 0.01 0.00
180°
2014 Apr 26, 03:55 36.25502° -75.59117° 30 min 0.02 0.01
47°
2014 Apr 26, 03:25 36.25499° -75.59122° 30 min 0.01 0.01
207°
2014 Apr 26, 02:55 36.25510° -75.59115° 30 min 0.02 0.01
90°
2014 Apr 26, 02:25 36.25510° -75.59126° 30 min 0.01 0.01
25°
2014 Apr 26, 01:55 36.25503° -75.59130° 30 min 0.01 0.00
122°
2014 Apr 26, 01:25 36.25504° -75.59132° 30 min 0.01 0.01
210°
2014 Apr 26, 00:55 36.25511° -75.59128° 30 min 0.01 0.01
48°
2014 Apr 26, 00:25 36.25503° -75.59138° 30 min 0.01 0.00
68°
2014 Apr 25, 23:55 36.25502° -75.59141° 30 min 0.01 0.01
149°
2014 Apr 25, 23:25 36.25508° -75.59145° 30 min 0.01 0.01
138°
2014 Apr 25, 22:55 36.25512° -75.59149° 30 min 0.01 0.01
126°
2014 Apr 25, 22:25 36.25517° -75.59158° 30 min 0.02 0.00
180°
2014 Apr 25, 21:55 36.25518° -75.59158° 30 min 0.02 0.00
2014 Apr 25, 21:25 36.25517° -75.59158° 30 min 0.02 0.00
28°
2014 Apr 25, 20:55 36.25515° -75.59160° 30 min 0.02 0.00
227°
2014 Apr 25, 20:25 36.25516° -75.59158° 30 min 0.02 0.01
52°
2014 Apr 25, 19:55 36.25511° -75.59167° 30 min 0.02 0.00
219°
2014 Apr 25, 19:25 36.25513° -75.59164° 30 min 0.02 0.00
302°
2014 Apr 25, 18:55 36.25512° -75.59162° 30 min 0.01 0.00
180°
2014 Apr 25, 18:25 36.25513° -75.59162° 30 min 0.01 0.05
317°
2014 Apr 25, 17:55 36.25483° -75.59128° 30 min 0.01 0.05
135°
2014 Apr 25, 17:25 36.25511° -75.59162° 30 min 0.01 0.00
302°
2014 Apr 25, 16:55 36.25510° -75.59160° 30 min 0.01 0.00
180°
2014 Apr 25, 16:25 36.25513° -75.59160° 30 min 0.01 0.01
335°
2014 Apr 25, 15:55 36.25507° -75.59156° 30 min 0.01 0.00
253°
2014 Apr 25, 15:25 36.25508° -75.59151° 30 min 0.01 0.01
150°
2014 Apr 25, 14:55 36.25514° -75.59156° 30 min 0.01 0.01
230°
2014 Apr 25, 14:25 36.25517° -75.59151° 30 min 0.02 0.01
2014 Apr 25, 13:55 36.25511° -75.59151° 30 min 0.01 0.01
202°
2014 Apr 25, 13:25 36.25518° -75.59148° 30 min 0.02 0.00
321°
2014 Apr 25, 12:55 36.25516° -75.59145° 30 min 0.01 0.00
122°
2014 Apr 25, 12:25 36.25517° -75.59148° 30 min 0.02 0.00
321°
2014 Apr 25, 11:55 36.25515° -75.59145° 30 min 0.01 0.00
180°
2014 Apr 25, 11:25 36.25517° -75.59145° 30 min 0.02 0.00
90°
2014 Apr 25, 10:55 36.25517° -75.59149° 30 min 0.02 0.01
344°
2014 Apr 25, 10:25 36.25513° -75.59148° 30 min 0.01 0.01
180°
2014 Apr 25, 09:55 36.25517° -75.59148° 30 min 0.02 0.00
90°
2014 Apr 25, 09:25 36.25517° -75.59149° 30 min 0.02 0.00
122°
2014 Apr 25, 08:55 36.25518° -75.59151° 30 min 0.02 0.01
19°
2014 Apr 25, 08:25 36.25513° -75.59154° 30 min 0.01 0.00
243°
2014 Apr 25, 07:55 36.25515° -75.59149° 30 min 0.01 0.00
180°
2014 Apr 25, 07:25 36.25517° -75.59149° 30 min 0.02 0.01
58°
2014 Apr 25, 06:55 36.25515° -75.59154° 30 min 0.01 0.00
2014 Apr 25, 06:25 36.25513° -75.59154° 30 min 0.01 0.00
321°
2014 Apr 25, 05:55 36.25511° -75.59151° 30 min 0.01 0.01
2014 Apr 25, 05:25 36.25507° -75.59151° 30 min 0.01 0.00
180°
2014 Apr 25, 04:55 36.25510° -75.59151° 30 min 0.01 0.00
316°
2014 Apr 25, 04:25 36.25508° -75.59149° 30 min 0.01 0.00
313°
2014 Apr 25, 03:55 36.25507° -75.59148° 30 min 0.01 0.00
270°
2014 Apr 25, 03:25 36.25507° -75.59145° 30 min 0.01 0.01
297°
2014 Apr 25, 02:55 36.25503° -75.59137° 30 min 0.01 0.01
310°
2014 Apr 25, 02:25 36.25500° -75.59132° 30 min 0.01 0.00
58°
2014 Apr 25, 01:55 36.25499° -75.59135° 30 min 0.01 0.00
270°
2014 Apr 25, 01:25 36.25499° -75.59132° 30 min 0.01 0.00
2014 Apr 25, 00:55 36.25497° -75.59132° 30 min 0.01 0.00
2014 Apr 25, 00:25 36.25495° -75.59132° 30 min 0.01 0.00
180°
2014 Apr 24, 23:55 36.25496° -75.59132° 30 min 0.01 0.00
248°
2014 Apr 24, 23:25 36.25497° -75.59130° 30 min 0.01 0.01
96°
2014 Apr 24, 22:55 36.25498° -75.59143° 30 min 0.00 0.01
291°
2014 Apr 24, 22:25 36.25496° -75.59137° 30 min 0.00 0.00
90°
2014 Apr 24, 21:55 36.25496° -75.59138° 30 min 0.00 0.01
130°
2014 Apr 24, 21:25 36.25499° -75.59143° 30 min 0.00 0.01
302°
2014 Apr 24, 20:55 36.25497° -75.59138° 30 min 0.00 0.00
44°
2014 Apr 24, 20:25 36.25495° -75.59141° 30 min 0.00 0.01
64°
2014 Apr 24, 19:55 36.25491° -75.59151° 30 min 0.00 0.01
254°
2014 Apr 24, 19:25 36.25492° -75.59143° 30 min 0.00 0.00
90°
2014 Apr 24, 18:55 36.25492° -75.59145° 30 min 0.00 0.00
2014 Apr 24, 18:25 36.25492° -75.59145° 30 min 0.00 0.00
90°
2014 Apr 24, 17:55 36.25492° -75.59148° 30 min 0.00 0.00
208°
2014 Apr 24, 17:25 36.25496° -75.59145° 30 min 0.00 0.00
2014 Apr 24, 16:55 36.25492° -75.59145° 30 min 0.00 0.00
329°
2014 Apr 24, 16:25 36.25489° -75.59143° 30 min 0.00 0.00
2014 Apr 24, 15:55 36.25489° -75.59143° 30 min 0.00 0.00
302°
2014 Apr 24, 15:25 36.25488° -75.59141° 30 min 0.00 0.00
238°
2014 Apr 24, 14:55 36.25489° -75.59138° 30 min 0.00 0.00
180°
2014 Apr 24, 14:25 36.25491° -75.59138° 30 min 0.00 0.00
2014 Apr 24, 13:55 36.25491° -75.59138° 30 min 0.00 0.00
307°
2014 Apr 24, 13:25 36.25488° -75.59135° 30 min 0.01 0.00
2014 Apr 24, 12:55 36.25488° -75.59135° 30 min 0.01 0.00
2014 Apr 24, 12:25 36.25488° -75.59135° 30 min 0.01 0.00
219°
2014 Apr 24, 11:55 36.25491° -75.59132° 30 min 0.01 0.00
2014 Apr 24, 11:25 36.25489° -75.59132° 30 min 0.01 0.00
122°
2014 Apr 24, 10:55 36.25491° -75.59135° 30 min 0.01 0.00
2014 Apr 24, 10:25 36.25489° -75.59135° 30 min 0.01 0.00
70°
2014 Apr 24, 09:55 36.25488° -75.59138° 30 min 0.00 0.00
180°
2014 Apr 24, 09:25 36.25491° -75.59138° 30 min 0.00 0.00
39°
2014 Apr 24, 08:55 36.25488° -75.59141° 30 min 0.00 0.00
58°
2014 Apr 24, 08:25 36.25487° -75.59143° 30 min 0.00 0.01
224°
2014 Apr 24, 07:55 36.25496° -75.59132° 30 min 0.01 0.01
56°
2014 Apr 24, 07:25 36.25491° -75.59141° 30 min 0.00 0.00
2014 Apr 24, 06:55 36.25489° -75.59141° 30 min 0.00 0.00
58°
2014 Apr 24, 06:25 36.25488° -75.59143° 30 min 0.00 0.00
141°
2014 Apr 24, 05:55 36.25491° -75.59145° 30 min 0.00 0.01
22°
2014 Apr 24, 05:25 36.25483° -75.59149° 30 min 0.01 0.01
196°
2014 Apr 24, 04:55 36.25494° -75.59145° 30 min 0.00 0.00
270°
2014 Apr 24, 04:25 36.25494° -75.59143° 30 min 0.00 0.00
73°
2014 Apr 24, 03:55 36.25492° -75.59148° 30 min 0.00 0.00
302°
2014 Apr 24, 03:25 36.25491° -75.59145° 30 min 0.00 0.00
2014 Apr 24, 02:55 36.25491° -75.59145° 30 min 0.00 0.00
238°
2014 Apr 24, 02:25 36.25492° -75.59143° 30 min 0.00 0.00
2014 Apr 24, 01:55 36.25491° -75.59143° 30 min 0.00 0.00
292°
2014 Apr 24, 01:25 36.25491° -75.59141° 30 min 0.00 0.00
2014 Apr 24, 00:55 36.25489° -75.59141° 30 min 0.00 0.00
307°
2014 Apr 24, 00:25 36.25487° -75.59137° 30 min 0.01 0.00
90°
2014 Apr 23, 23:55 36.25487° -75.59138° 30 min 0.00 0.00
180°
2014 Apr 23, 23:25 36.25489° -75.59138° 30 min 0.00 0.00
2014 Apr 23, 22:55 36.25489° -75.59138° 30 min 0.00 0.01
196°
2014 Apr 23, 22:25 36.25494° -75.59137° 30 min 0.00 0.00
53°
2014 Apr 23, 21:55 36.25491° -75.59141° 30 min 0.00 0.00
180°
2014 Apr 23, 21:25 36.25494° -75.59141° 30 min 0.00 0.00
122°
2014 Apr 23, 20:55 36.25495° -75.59143° 30 min 0.00 0.00
270°
2014 Apr 23, 20:25 36.25495° -75.59141° 30 min 0.00 0.00
58°
2014 Apr 23, 19:55 36.25494° -75.59143° 30 min 0.00 0.00
58°
2014 Apr 23, 19:25 36.25492° -75.59145° 30 min 0.00 0.00
70°
2014 Apr 23, 18:55 36.25491° -75.59149° 30 min 0.00 0.00
180°
2014 Apr 23, 18:25 36.25492° -75.59149° 30 min 0.00 0.00
58°
2014 Apr 23, 17:55 36.25491° -75.59151° 30 min 0.00 0.00
90°
2014 Apr 23, 17:25 36.25491° -75.59154° 30 min 0.00 0.00
180°
2014 Apr 23, 16:55 36.25495° -75.59154° 30 min 0.00 0.00
122°
2014 Apr 23, 16:25 36.25496° -75.59156° 30 min 0.01 0.00
270°
2014 Apr 23, 15:55 36.25496° -75.59154° 30 min 0.00 0.00
2014 Apr 23, 15:25 36.25492° -75.59154° 30 min 0.00 0.00
302°
2014 Apr 23, 14:55 36.25491° -75.59151° 30 min 0.00 0.00
141°
2014 Apr 23, 14:25 36.25494° -75.59154° 30 min 0.00 0.00
2014 Apr 23, 13:55 36.25494° -75.59154° 30 min 0.00 0.00
287°
2014 Apr 23, 13:25 36.25492° -75.59149° 30 min 0.00 0.00
313°
2014 Apr 23, 12:55 36.25491° -75.59148° 30 min 0.00 0.00
2014 Apr 23, 12:25 36.25491° -75.59148° 30 min 0.00 0.00
180°
2014 Apr 23, 11:55 36.25491° -75.59148° 30 min 0.00 0.00
2014 Apr 23, 11:25 36.25488° -75.59148° 30 min 0.00 0.00
253°
2014 Apr 23, 10:55 36.25489° -75.59143° 30 min 0.00 0.01
130°
2014 Apr 23, 10:25 36.25492° -75.59148° 30 min 0.00 0.00
180°
2014 Apr 23, 09:55 36.25496° -75.59148° 30 min 0.00 0.00
180°
2014 Apr 23, 09:25 36.25497° -75.59148° 30 min 0.00 0.01
154°
2014 Apr 23, 08:55 36.25507° -75.59154° 30 min 0.01 0.01
143°
2014 Apr 23, 08:25 36.25513° -75.59160° 30 min 0.01 0.00
2014 Apr 23, 07:55 36.25513° -75.59160° 30 min 0.01 0.00
180°
2014 Apr 23, 07:25 36.25515° -75.59160° 30 min 0.02 0.00
327°
2014 Apr 23, 06:55 36.25513° -75.59158° 30 min 0.01 0.00
238°
2014 Apr 23, 06:25 36.25514° -75.59156° 30 min 0.01 0.00
90°
2014 Apr 23, 05:55 36.25514° -75.59158° 30 min 0.01 0.00
47°
2014 Apr 23, 05:25 36.25513° -75.59160° 30 min 0.01 0.00
180°
2014 Apr 23, 04:55 36.25515° -75.59160° 30 min 0.02 0.00
2014 Apr 23, 04:25 36.25514° -75.59160° 30 min 0.02 0.00
2014 Apr 23, 03:55 36.25512° -75.59160° 30 min 0.01 0.00
227°
2014 Apr 23, 03:25 36.25513° -75.59158° 30 min 0.01 0.00
270°
2014 Apr 23, 02:55 36.25513° -75.59154° 30 min 0.01 0.00
180°
2014 Apr 23, 02:25 36.25514° -75.59154° 30 min 0.01 0.01
302°
2014 Apr 23, 01:55 36.25512° -75.59149° 30 min 0.01 0.00
2014 Apr 23, 01:25 36.25512° -75.59149° 30 min 0.01 0.01
283°
2014 Apr 23, 00:55 36.25511° -75.59143° 30 min 0.01 0.01
58°
2014 Apr 23, 00:25 36.25507° -75.59151° 30 min 0.01 0.00
224°
2014 Apr 22, 23:55 36.25508° -75.59149° 30 min 0.01 0.01
245°
2014 Apr 22, 23:25 36.25511° -75.59143° 30 min 0.01 0.00
2014 Apr 22, 22:55 36.25511° -75.59143° 30 min 0.01 0.01
50°
2014 Apr 22, 22:25 36.25507° -75.59149° 30 min 0.01 0.01
238°
2014 Apr 22, 21:55 36.25510° -75.59143° 30 min 0.01 0.00
180°
2014 Apr 22, 21:25 36.25511° -75.59143° 30 min 0.01 0.00
122°
2014 Apr 22, 20:55 36.25512° -75.59145° 30 min 0.01 0.00
2014 Apr 22, 20:25 36.25512° -75.59145° 30 min 0.01 0.00
53°
2014 Apr 22, 19:55 36.25510° -75.59149° 30 min 0.01 0.00
90°
2014 Apr 22, 19:25 36.25510° -75.59151° 30 min 0.01 0.00
180°
2014 Apr 22, 18:55 36.25511° -75.59151° 30 min 0.01 0.00
2014 Apr 22, 18:25 36.25511° -75.59151° 30 min 0.01 0.00
90°
2014 Apr 22, 17:55 36.25511° -75.59154° 30 min 0.01 0.00
39°
2014 Apr 22, 17:25 36.25508° -75.59156° 30 min 0.01 0.00
292°
2014 Apr 22, 16:55 36.25508° -75.59154° 30 min 0.01 0.00
39°
2014 Apr 22, 16:25 36.25505° -75.59156° 30 min 0.01 0.00
2014 Apr 22, 15:55 36.25505° -75.59156° 30 min 0.01 0.00
58°
2014 Apr 22, 15:25 36.25504° -75.59158° 30 min 0.01 0.00
316°
2014 Apr 22, 14:55 36.25502° -75.59156° 30 min 0.01 0.00
39°
2014 Apr 22, 14:25 36.25500° -75.59158° 30 min 0.01 0.00
47°
2014 Apr 22, 13:55 36.25499° -75.59160° 30 min 0.01 0.01
289°
2014 Apr 22, 13:25 36.25497° -75.59151° 30 min 0.00 0.00
2014 Apr 22, 12:55 36.25494° -75.59151° 30 min 0.00 0.00
290°
2014 Apr 22, 12:25 36.25492° -75.59148° 30 min 0.00 0.00
302°
2014 Apr 22, 11:55 36.25491° -75.59145° 30 min 0.00 0.00
270°
2014 Apr 22, 11:25 36.25491° -75.59143° 30 min 0.00 0.00
270°
2014 Apr 22, 10:55 36.25491° -75.59141° 30 min 0.00 0.00
270°
2014 Apr 22, 10:25 36.25491° -75.59138° 30 min 0.00 0.00
2014 Apr 22, 09:55 36.25491° -75.59138° 30 min 0.00 0.00
180°
2014 Apr 22, 09:25 36.25494° -75.59138° 30 min 0.00 0.01
19°
2014 Apr 22, 08:55 36.25488° -75.59141° 30 min 0.00 0.01
156°
2014 Apr 22, 08:25 36.25492° -75.59143° 30 min 0.00 0.01
180°
2014 Apr 22, 07:55 36.25497° -75.59143° 30 min 0.00 0.00
2014 Apr 22, 07:25 36.25496° -75.59143° 30 min 0.00 0.00
90°
2014 Apr 22, 06:55 36.25496° -75.59148° 30 min 0.00 0.00
90°
2014 Apr 22, 06:25 36.25496° -75.59149° 30 min 0.00 0.00
90°
2014 Apr 22, 05:55 36.25496° -75.59154° 30 min 0.00 0.01
22°
2014 Apr 22, 05:25 36.25491° -75.59156° 30 min 0.01 0.01
180°
2014 Apr 22, 04:55 36.25499° -75.59156° 30 min 0.01 0.01
2014 Apr 22, 04:25 36.25495° -75.59156° 30 min 0.01 0.00
2014 Apr 22, 03:55 36.25495° -75.59156° 30 min 0.01 0.00
2014 Apr 22, 03:25 36.25495° -75.59156° 30 min 0.01 0.00
2014 Apr 22, 02:55 36.25494° -75.59156° 30 min 0.01 0.00
302°
2014 Apr 22, 02:25 36.25492° -75.59154° 30 min 0.00 0.01
302°
2014 Apr 22, 01:55 36.25489° -75.59148° 30 min 0.00 0.01
302°
2014 Apr 22, 01:25 36.25486° -75.59141° 30 min 0.00 0.00
2014 Apr 22, 00:55 36.25485° -75.59141° 30 min 0.00 0.00
270°
2014 Apr 22, 00:25 36.25485° -75.59138° 30 min 0.01 0.01
119°
2014 Apr 21, 23:55 36.25488° -75.59145° 30 min 0.00 0.01
289°
2014 Apr 21, 23:25 36.25486° -75.59137° 30 min 0.01 0.00
90°
2014 Apr 21, 22:55 36.25486° -75.59141° 30 min 0.00 0.00
270°
2014 Apr 21, 22:25 36.25486° -75.59138° 30 min 0.00 0.00
250°
2014 Apr 21, 21:55 36.25487° -75.59135° 30 min 0.01 0.00
180°
2014 Apr 21, 21:25 36.25488° -75.59135° 30 min 0.01 0.01
2014 Apr 21, 20:55 36.25483° -75.59135° 30 min 0.01 0.00
39°
2014 Apr 21, 20:25 36.25481° -75.59137° 30 min 0.01 0.01
216°
2014 Apr 21, 19:55 36.25488° -75.59130° 30 min 0.01 0.00
270°
2014 Apr 21, 19:25 36.25488° -75.59128° 30 min 0.01 0.00
73°
2014 Apr 21, 18:55 36.25487° -75.59132° 30 min 0.01 0.00
2014 Apr 21, 18:25 36.25484° -75.59132° 30 min 0.01 0.00
149°
2014 Apr 21, 17:55 36.25487° -75.59135° 30 min 0.01 0.00
208°
2014 Apr 21, 17:25 36.25491° -75.59132° 30 min 0.01 0.01
99°
2014 Apr 21, 16:55 36.25491° -75.59138° 30 min 0.00 0.00
31°
2014 Apr 21, 16:25 36.25488° -75.59141° 30 min 0.00 0.01
2014 Apr 21, 15:55 36.25482° -75.59141° 30 min 0.01 0.00
122°
2014 Apr 21, 15:25 36.25483° -75.59143° 30 min 0.01 0.00
219°
2014 Apr 21, 14:55 36.25485° -75.59141° 30 min 0.00 0.00
224°
2014 Apr 21, 14:25 36.25487° -75.59138° 30 min 0.00 0.01
2014 Apr 21, 13:55 36.25482° -75.59138° 30 min 0.01 0.01
133°
2014 Apr 21, 13:25 36.25485° -75.59143° 30 min 0.00 0.00
248°
2014 Apr 21, 12:55 36.25486° -75.59141° 30 min 0.00 0.00
250°
2014 Apr 21, 12:25 36.25487° -75.59137° 30 min 0.01 0.01
2014 Apr 21, 11:55 36.25482° -75.59137° 30 min 0.01 0.01
238°
2014 Apr 21, 11:25 36.25484° -75.59132° 30 min 0.01 0.00
73°
2014 Apr 21, 10:55 36.25483° -75.59137° 30 min 0.01 0.00
238°
2014 Apr 21, 10:25 36.25484° -75.59135° 30 min 0.01 0.00
224°
2014 Apr 21, 09:55 36.25486° -75.59132° 30 min 0.01 0.00
2014 Apr 21, 09:25 36.25485° -75.59132° 30 min 0.01 0.00
180°
2014 Apr 21, 08:55 36.25487° -75.59132° 30 min 0.01 0.00
180°
2014 Apr 21, 08:25 36.25489° -75.59132° 30 min 0.01 0.01
2014 Apr 21, 07:55 36.25483° -75.59132° 30 min 0.01 0.00
122°
2014 Apr 21, 07:25 36.25484° -75.59135° 30 min 0.01 0.00
211°
2014 Apr 21, 06:55 36.25487° -75.59132° 30 min 0.01 0.00
63°
2014 Apr 21, 06:25 36.25485° -75.59137° 30 min 0.01 0.00
321°
2014 Apr 21, 05:55 36.25483° -75.59135° 30 min 0.01 0.00
180°
2014 Apr 21, 05:25 36.25486° -75.59135° 30 min 0.01 0.00
68°
2014 Apr 21, 04:55 36.25485° -75.59137° 30 min 0.01 0.00
2014 Apr 21, 04:25 36.25485° -75.59137° 30 min 0.01 0.00
2014 Apr 21, 03:55 36.25484° -75.59137° 30 min 0.01 0.01
90°
2014 Apr 21, 03:25 36.25484° -75.59143° 30 min 0.00 0.01
302°
2014 Apr 21, 02:55 36.25482° -75.59138° 30 min 0.01 0.01
139°
2014 Apr 21, 02:25 36.25486° -75.59143° 30 min 0.00 0.00
90°
2014 Apr 21, 01:55 36.25486° -75.59145° 30 min 0.00 0.00
292°
2014 Apr 21, 01:25 36.25485° -75.59143° 30 min 0.00 0.01
22°
2014 Apr 21, 00:55 36.25481° -75.59145° 30 min 0.01 0.00
282°
2014 Apr 21, 00:25 36.25480° -75.59141° 30 min 0.01 0.04
55°
2014 Apr 20, 23:55 36.25459° -75.59177° 30 min 0.03 0.04
231°
2014 Apr 20, 23:25 36.25482° -75.59143° 30 min 0.01 0.01
280°
2014 Apr 20, 22:55 36.25481° -75.59135° 30 min 0.01 0.01
74°
2014 Apr 20, 22:25 36.25479° -75.59143° 30 min 0.01 0.01
238°
2014 Apr 20, 21:55 36.25482° -75.59137° 30 min 0.01 0.00
180°
2014 Apr 20, 21:25 36.25485° -75.59137° 30 min 0.01 0.00
302°
2014 Apr 20, 20:55 36.25484° -75.59135° 30 min 0.01 0.01
251°
2014 Apr 20, 20:25 36.25486° -75.59128° 30 min 0.01 0.00
44°
2014 Apr 20, 19:55 36.25484° -75.59130° 30 min 0.01 0.01
225°
2014 Apr 20, 19:25 36.25487° -75.59126° 30 min 0.01 0.00
133°
2014 Apr 20, 18:55 36.25488° -75.59128° 30 min 0.01 0.00
90°
2014 Apr 20, 18:25 36.25488° -75.59130° 30 min 0.01 0.00
238°
2014 Apr 20, 17:55 36.25489° -75.59128° 30 min 0.01 0.01
68°
2014 Apr 20, 17:25 36.25487° -75.59135° 30 min 0.01 0.01
210°
2014 Apr 20, 16:55 36.25494° -75.59130° 30 min 0.01 0.01
42°
2014 Apr 20, 16:25 36.25486° -75.59138° 30 min 0.00 0.00
180°
2014 Apr 20, 15:55 36.25487° -75.59138° 30 min 0.00 0.00
107°
2014 Apr 20, 15:25 36.25488° -75.59143° 30 min 0.00 0.00
90°
2014 Apr 20, 14:55 36.25488° -75.59148° 30 min 0.00 0.01
115°
2014 Apr 20, 14:25 36.25491° -75.59154° 30 min 0.00 0.00
332°
2014 Apr 20, 13:55 36.25487° -75.59151° 30 min 0.00 0.00
122°
2014 Apr 20, 13:25 36.25488° -75.59154° 30 min 0.00 0.00
270°
2014 Apr 20, 12:55 36.25488° -75.59151° 30 min 0.00 0.00
180°
2014 Apr 20, 12:25 36.25489° -75.59151° 30 min 0.00 0.00
224°
2014 Apr 20, 11:55 36.25491° -75.59149° 30 min 0.00 0.00
338°
2014 Apr 20, 11:25 36.25488° -75.59148° 30 min 0.00 0.00
270°
2014 Apr 20, 10:55 36.25488° -75.59145° 30 min 0.00 0.00
58°
2014 Apr 20, 10:25 36.25487° -75.59148° 30 min 0.00 0.01
227°
2014 Apr 20, 09:55 36.25491° -75.59143° 30 min 0.00 0.01
22°
2014 Apr 20, 09:25 36.25486° -75.59145° 30 min 0.00 0.00
219°
2014 Apr 20, 08:55 36.25488° -75.59143° 30 min 0.00 0.00
270°
2014 Apr 20, 08:25 36.25488° -75.59138° 30 min 0.00 0.00
149°
2014 Apr 20, 07:55 36.25491° -75.59141° 30 min 0.00 0.00
44°
2014 Apr 20, 07:25 36.25489° -75.59143° 30 min 0.00 0.00
302°
2014 Apr 20, 06:55 36.25488° -75.59141° 30 min 0.00 0.00
2014 Apr 20, 06:25 36.25488° -75.59141° 30 min 0.00 0.00
141°
2014 Apr 20, 05:55 36.25491° -75.59143° 30 min 0.00 0.00
73°
2014 Apr 20, 05:25 36.25489° -75.59148° 30 min 0.00 0.00
180°
2014 Apr 20, 04:55 36.25492° -75.59148° 30 min 0.00 0.00
47°
2014 Apr 20, 04:25 36.25491° -75.59149° 30 min 0.00 0.01
102°
2014 Apr 20, 03:55 36.25492° -75.59156° 30 min 0.01 0.01
138°
2014 Apr 20, 03:25 36.25496° -75.59160° 30 min 0.01 0.00
180°
2014 Apr 20, 02:55 36.25497° -75.59160° 30 min 0.01 0.00
2014 Apr 20, 02:25 36.25494° -75.59160° 30 min 0.01 0.01
139°
2014 Apr 20, 01:55 36.25498° -75.59164° 30 min 0.01 0.00
2014 Apr 20, 01:25 36.25496° -75.59164° 30 min 0.01 0.01
302°
2014 Apr 20, 00:55 36.25494° -75.59160° 30 min 0.01 0.01
295°
2014 Apr 20, 00:25 36.25491° -75.59154° 30 min 0.00 0.00
282°
2014 Apr 19, 23:55 36.25491° -75.59149° 30 min 0.00 0.00
213°
2014 Apr 19, 23:25 36.25492° -75.59148° 30 min 0.00 0.01
310°
2014 Apr 19, 22:55 36.25489° -75.59143° 30 min 0.00 0.00
2014 Apr 19, 22:25 36.25488° -75.59143° 30 min 0.00 0.00
219°
2014 Apr 19, 21:55 36.25491° -75.59141° 30 min 0.00 0.00
149°
2014 Apr 19, 21:25 36.25494° -75.59143° 30 min 0.00 0.01
2014 Apr 19, 20:55 36.25488° -75.59143° 30 min 0.00 0.01
270°
2014 Apr 19, 20:25 36.25488° -75.59137° 30 min 0.00 0.00
238°
2014 Apr 19, 19:55 36.25489° -75.59135° 30 min 0.01 0.00
238°
2014 Apr 19, 19:25 36.25491° -75.59132° 30 min 0.01 0.01
180°
2014 Apr 19, 18:55 36.25495° -75.59132° 30 min 0.01 0.00
2014 Apr 19, 18:25 36.25492° -75.59132° 30 min 0.01 0.00
2014 Apr 19, 17:55 36.25491° -75.59132° 30 min 0.01 0.00
2014 Apr 19, 17:25 36.25491° -75.59132° 30 min 0.01 0.00
63°
2014 Apr 19, 16:55 36.25489° -75.59137° 30 min 0.00 0.00
47°
2014 Apr 19, 16:25 36.25488° -75.59138° 30 min 0.00 0.00
141°
2014 Apr 19, 15:55 36.25491° -75.59141° 30 min 0.00 0.00
39°
2014 Apr 19, 15:25 36.25488° -75.59143° 30 min 0.00 0.00
90°
2014 Apr 19, 14:55 36.25488° -75.59148° 30 min 0.00 0.00
152°
2014 Apr 19, 14:25 36.25491° -75.59149° 30 min 0.00 0.00
39°
2014 Apr 19, 13:55 36.25488° -75.59151° 30 min 0.00 0.00
122°
2014 Apr 19, 13:25 36.25489° -75.59154° 30 min 0.00 0.01
302°
2014 Apr 19, 12:55 36.25487° -75.59149° 30 min 0.00 0.00
180°
2014 Apr 19, 12:25 36.25489° -75.59149° 30 min 0.00 0.00
270°
2014 Apr 19, 11:55 36.25489° -75.59148° 30 min 0.00 0.00
2014 Apr 19, 11:25 36.25487° -75.59148° 30 min 0.00 0.00
90°
2014 Apr 19, 10:55 36.25487° -75.59149° 30 min 0.00 0.00
270°
2014 Apr 19, 10:25 36.25487° -75.59145° 30 min 0.00 0.00
238°
2014 Apr 19, 09:55 36.25488° -75.59143° 30 min 0.00 0.00
2014 Apr 19, 09:25 36.25487° -75.59143° 30 min 0.00 0.00
2014 Apr 19, 08:55 36.25486° -75.59143° 30 min 0.00 0.00
238°
2014 Apr 19, 08:25 36.25487° -75.59141° 30 min 0.00 0.00
250°
2014 Apr 19, 07:55 36.25488° -75.59137° 30 min 0.00 0.00
302°
2014 Apr 19, 07:25 36.25487° -75.59135° 30 min 0.01 0.00
141°
2014 Apr 19, 06:55 36.25489° -75.59137° 30 min 0.00 0.00
270°
2014 Apr 19, 06:25 36.25489° -75.59135° 30 min 0.01 0.00
58°
2014 Apr 19, 05:55 36.25488° -75.59137° 30 min 0.00 0.00
270°
2014 Apr 19, 05:25 36.25488° -75.59135° 30 min 0.01 0.00
127°
2014 Apr 19, 04:55 36.25491° -75.59138° 30 min 0.00 0.00
180°
2014 Apr 19, 04:25 36.25491° -75.59138° 30 min 0.00 0.00
90°
2014 Apr 19, 03:55 36.25491° -75.59143° 30 min 0.00 0.00
180°
2014 Apr 19, 03:25 36.25492° -75.59143° 30 min 0.00 0.00
44°
2014 Apr 19, 02:55 36.25491° -75.59145° 30 min 0.00 0.00
58°
2014 Apr 19, 02:25 36.25489° -75.59148° 30 min 0.00 0.00
180°
2014 Apr 19, 01:55 36.25491° -75.59148° 30 min 0.00 0.00
2014 Apr 19, 01:25 36.25488° -75.59148° 30 min 0.00 0.00
47°
2014 Apr 19, 00:55 36.25487° -75.59149° 30 min 0.00 0.00
2014 Apr 19, 00:25 36.25485° -75.59149° 30 min 0.00 0.28
2014 Apr 18, 23:55 36.25253° -75.59156° 30 min 0.14 0.27
176°
2014 Apr 18, 23:25 36.25481° -75.59175° 30 min 0.02 0.03
258°
2014 Apr 18, 22:55 36.25485° -75.59149° 30 min 0.00 0.00
270°
2014 Apr 18, 22:25 36.25485° -75.59145° 30 min 0.00 0.00
112°
2014 Apr 18, 21:55 36.25486° -75.59148° 30 min 0.00 0.01
289°
2014 Apr 18, 21:25 36.25484° -75.59141° 30 min 0.01 0.00
321°
2014 Apr 18, 20:55 36.25482° -75.59138° 30 min 0.01 0.01
238°
2014 Apr 18, 20:25 36.25487° -75.59128° 30 min 0.01 0.01
2014 Apr 18, 19:55 36.25483° -75.59128° 30 min 0.01 0.01
112°
2014 Apr 18, 19:25 36.25485° -75.59135° 30 min 0.01 0.00
180°
2014 Apr 18, 18:55 36.25487° -75.59135° 30 min 0.01 0.00
270°
2014 Apr 18, 18:25 36.25487° -75.59132° 30 min 0.01 0.00
58°
2014 Apr 18, 17:55 36.25486° -75.59135° 30 min 0.01 0.00
2014 Apr 18, 17:25 36.25486° -75.59135° 30 min 0.01 0.01
2014 Apr 18, 16:55 36.25482° -75.59135° 30 min 0.01 0.00
90°
2014 Apr 18, 16:25 36.25482° -75.59137° 30 min 0.01 0.01
227°
2014 Apr 18, 15:55 36.25485° -75.59132° 30 min 0.01 0.03
66°
2014 Apr 18, 15:25 36.25475° -75.59160° 30 min 0.01 0.03
242°
2014 Apr 18, 14:55 36.25487° -75.59132° 30 min 0.01 0.00
2014 Apr 18, 14:25 36.25486° -75.59132° 30 min 0.01 0.01
90°
2014 Apr 18, 13:55 36.25486° -75.59138° 30 min 0.00 0.00
2014 Apr 18, 13:25 36.25486° -75.59138° 30 min 0.00 0.02
180°
2014 Apr 18, 12:55 36.25500° -75.59138° 30 min 0.01 0.02
2014 Apr 18, 12:25 36.25485° -75.59141° 30 min 0.00 0.01
47°
2014 Apr 18, 11:55 36.25482° -75.59145° 30 min 0.01 0.00
253°
2014 Apr 18, 11:25 36.25483° -75.59141° 30 min 0.01 0.00
302°
2014 Apr 18, 10:55 36.25482° -75.59138° 30 min 0.01 0.00
122°
2014 Apr 18, 10:25 36.25483° -75.59141° 30 min 0.01 0.00
238°
2014 Apr 18, 09:55 36.25484° -75.59138° 30 min 0.01 0.00
270°
2014 Apr 18, 09:25 36.25484° -75.59135° 30 min 0.01 0.01
42°
2014 Apr 18, 08:55 36.25481° -75.59138° 30 min 0.01 0.00
250°
2014 Apr 18, 08:25 36.25482° -75.59135° 30 min 0.01 0.00
270°
2014 Apr 18, 07:55 36.25482° -75.59132° 30 min 0.01 0.00
180°
2014 Apr 18, 07:25 36.25484° -75.59132° 30 min 0.01 0.00
2014 Apr 18, 06:55 36.25482° -75.59132° 30 min 0.01 0.00
90°
2014 Apr 18, 06:25 36.25482° -75.59135° 30 min 0.01 0.00
2014 Apr 18, 05:55 36.25481° -75.59135° 30 min 0.01 0.00
208°
2014 Apr 18, 05:25 36.25484° -75.59132° 30 min 0.01 0.00
211°
2014 Apr 18, 04:55 36.25487° -75.59130° 30 min 0.01 0.00
2014 Apr 18, 04:25 36.25486° -75.59130° 30 min 0.01 0.00
90°
2014 Apr 18, 03:55 36.25486° -75.59135° 30 min 0.01 0.00
180°
2014 Apr 18, 03:25 36.25487° -75.59135° 30 min 0.01 0.00
90°
2014 Apr 18, 02:55 36.25487° -75.59138° 30 min 0.00 0.00
31°
2014 Apr 18, 02:25 36.25484° -75.59141° 30 min 0.01 0.01
318°
2014 Apr 18, 01:55 36.25481° -75.59137° 30 min 0.01 0.01
112°
2014 Apr 18, 01:25 36.25484° -75.59148° 30 min 0.00 0.00
90°
2014 Apr 18, 00:55 36.25484° -75.59149° 30 min 0.01 0.00
117°
2014 Apr 18, 00:25 36.25486° -75.59154° 30 min 0.01 0.03
352°
2014 Apr 17, 23:55 36.25458° -75.59149° 30 min 0.02 0.03
176°
2014 Apr 17, 23:25 36.25485° -75.59151° 30 min 0.01 0.01
216°
2014 Apr 17, 22:55 36.25489° -75.59148° 30 min 0.00 0.00
20°
2014 Apr 17, 22:25 36.25486° -75.59149° 30 min 0.00 0.00
270°
2014 Apr 17, 21:55 36.25486° -75.59148° 30 min 0.00 0.00
180°
2014 Apr 17, 21:25 36.25487° -75.59148° 30 min 0.00 0.00
2014 Apr 17, 20:55 36.25484° -75.59148° 30 min 0.00 0.00
28°
2014 Apr 17, 20:25 36.25482° -75.59149° 30 min 0.01 0.00
233°
2014 Apr 17, 19:55 36.25484° -75.59145° 30 min 0.00 0.00
270°
2014 Apr 17, 19:25 36.25484° -75.59141° 30 min 0.01 0.01
204°
2014 Apr 17, 18:55 36.25488° -75.59138° 30 min 0.00 0.00
2014 Apr 17, 18:25 36.25486° -75.59138° 30 min 0.00 0.00
284°
2014 Apr 17, 17:55 36.25485° -75.59135° 30 min 0.01 0.00
224°
2014 Apr 17, 17:25 36.25487° -75.59132° 30 min 0.01 0.00
2014 Apr 17, 16:55 36.25484° -75.59132° 30 min 0.01 0.00
136°
2014 Apr 17, 16:25 36.25486° -75.59135° 30 min 0.01 0.00
238°
2014 Apr 17, 15:55 36.25487° -75.59132° 30 min 0.01 0.00
90°
2014 Apr 17, 15:25 36.25487° -75.59135° 30 min 0.01 0.00
122°
2014 Apr 17, 14:55 36.25488° -75.59137° 30 min 0.00 0.01
122°
2014 Apr 17, 14:25 36.25491° -75.59143° 30 min 0.00 0.01
341°
2014 Apr 17, 13:55 36.25486° -75.59141° 30 min 0.00 0.01
102°
2014 Apr 17, 13:25 36.25487° -75.59148° 30 min 0.00 0.00
2014 Apr 17, 12:55 36.25487° -75.59148° 30 min 0.00 0.00
110°
2014 Apr 17, 12:25 36.25488° -75.59151° 30 min 0.00 0.00
180°
2014 Apr 17, 11:55 36.25489° -75.59151° 30 min 0.00 0.00
58°
2014 Apr 17, 11:25 36.25488° -75.59154° 30 min 0.00 0.00
287°
2014 Apr 17, 10:55 36.25487° -75.59149° 30 min 0.00 0.00
180°
2014 Apr 17, 10:25 36.25489° -75.59149° 30 min 0.00 0.00
250°
2014 Apr 17, 09:55 36.25491° -75.59145° 30 min 0.00 0.01
16°
2014 Apr 17, 09:25 36.25484° -75.59148° 30 min 0.00 0.00
253°
2014 Apr 17, 08:55 36.25485° -75.59143° 30 min 0.00 0.00
224°
2014 Apr 17, 08:25 36.25487° -75.59141° 30 min 0.00 0.00
302°
2014 Apr 17, 07:55 36.25486° -75.59138° 30 min 0.00 0.00
141°
2014 Apr 17, 07:25 36.25488° -75.59141° 30 min 0.00 0.01
270°
2014 Apr 17, 06:55 36.25488° -75.59130° 30 min 0.01 0.00
2014 Apr 17, 06:25 36.25488° -75.59130° 30 min 0.01 0.00
270°
2014 Apr 17, 05:55 36.25488° -75.59128° 30 min 0.01 0.00
180°
2014 Apr 17, 05:25 36.25491° -75.59128° 30 min 0.01 0.01
2014 Apr 17, 04:55 36.25487° -75.59128° 30 min 0.01 0.00
141°
2014 Apr 17, 04:25 36.25489° -75.59130° 30 min 0.01 0.00
180°
2014 Apr 17, 03:55 36.25491° -75.59130° 30 min 0.01 0.00
58°
2014 Apr 17, 03:25 36.25489° -75.59132° 30 min 0.01 0.00
117°
2014 Apr 17, 02:55 36.25491° -75.59137° 30 min 0.00 0.00
270°
2014 Apr 17, 02:25 36.25491° -75.59135° 30 min 0.01 0.00
292°
2014 Apr 17, 01:55 36.25491° -75.59132° 30 min 0.01 0.01
71°
2014 Apr 17, 01:25 36.25488° -75.59141° 30 min 0.00 0.00
329°
2014 Apr 17, 00:55 36.25485° -75.59138° 30 min 0.01 0.01
58°
2014 Apr 17, 00:25 36.25483° -75.59143° 30 min 0.01 0.00
180°
2014 Apr 16, 23:55 36.25485° -75.59143° 30 min 0.00 0.00
224°
2014 Apr 16, 23:25 36.25487° -75.59141° 30 min 0.00 0.01
122°
2014 Apr 16, 22:55 36.25491° -75.59148° 30 min 0.00 0.00
2014 Apr 16, 22:25 36.25491° -75.59148° 30 min 0.00 0.01
313°
2014 Apr 16, 21:55 36.25487° -75.59143° 30 min 0.00 0.00
270°
2014 Apr 16, 21:25 36.25487° -75.59138° 30 min 0.00 0.01
41°
2014 Apr 16, 20:55 36.25483° -75.59143° 30 min 0.01 0.01
283°
2014 Apr 16, 20:25 36.25482° -75.59137° 30 min 0.01 0.00
180°
2014 Apr 16, 19:55 36.25484° -75.59137° 30 min 0.01 0.00
253°
2014 Apr 16, 19:25 36.25485° -75.59132° 30 min 0.01 0.01
77°
2014 Apr 16, 18:55 36.25484° -75.59138° 30 min 0.01 0.01
260°
2014 Apr 16, 18:25 36.25485° -75.59130° 30 min 0.01 0.00
270°
2014 Apr 16, 17:55 36.25485° -75.59128° 30 min 0.01 0.00
180°
2014 Apr 16, 17:25 36.25487° -75.59128° 30 min 0.01 0.00
327°
2014 Apr 16, 16:55 36.25485° -75.59126° 30 min 0.01 0.00
70°
2014 Apr 16, 16:25 36.25484° -75.59130° 30 min 0.01 0.03
350°
2014 Apr 16, 15:55 36.25456° -75.59124° 30 min 0.02 0.02
191°
2014 Apr 16, 15:25 36.25475° -75.59119° 30 min 0.02 0.01
130°
2014 Apr 16, 14:55 36.25480° -75.59126° 30 min 0.01 0.01
144°
2014 Apr 16, 14:25 36.25484° -75.59130° 30 min 0.01 0.01
102°
2014 Apr 16, 13:55 36.25485° -75.59137° 30 min 0.01 0.01
321°
2014 Apr 16, 13:25 36.25481° -75.59132° 30 min 0.01 0.01
141°
2014 Apr 16, 12:55 36.25485° -75.59137° 30 min 0.01 0.01
122°
2014 Apr 16, 12:25 36.25488° -75.59143° 30 min 0.00 0.01
314°
2014 Apr 16, 11:55 36.25482° -75.59135° 30 min 0.01 0.01
30°
2014 Apr 16, 11:25 36.25476° -75.59138° 30 min 0.01 0.01
180°
2014 Apr 16, 10:55 36.25482° -75.59138° 30 min 0.01 0.00
2014 Apr 16, 10:25 36.25481° -75.59138° 30 min 0.01 0.00
200°
2014 Apr 16, 09:55 36.25484° -75.59137° 30 min 0.01 0.00
20°
2014 Apr 16, 09:25 36.25481° -75.59138° 30 min 0.01 0.00
270°
2014 Apr 16, 08:55 36.25481° -75.59135° 30 min 0.01 0.00
219°
2014 Apr 16, 08:25 36.25483° -75.59132° 30 min 0.01 0.00
287°
2014 Apr 16, 07:55 36.25482° -75.59128° 30 min 0.01 0.01
98°
2014 Apr 16, 07:25 36.25483° -75.59138° 30 min 0.01 0.01
2014 Apr 16, 06:55 36.25479° -75.59138° 30 min 0.01 0.00
238°
2014 Apr 16, 06:25 36.25481° -75.59135° 30 min 0.01 0.00
2014 Apr 16, 05:55 36.25480° -75.59135° 30 min 0.01 0.01
99°
2014 Apr 16, 05:25 36.25481° -75.59141° 30 min 0.01 0.01
270°
2014 Apr 16, 04:55 36.25481° -75.59130° 30 min 0.01 0.00
270°
2014 Apr 16, 04:25 36.25481° -75.59126° 30 min 0.01 0.01
147°
2014 Apr 16, 03:55 36.25488° -75.59132° 30 min 0.01 0.01
270°
2014 Apr 16, 03:25 36.25488° -75.59126° 30 min 0.01 0.00
302°
2014 Apr 16, 02:55 36.25487° -75.59124° 30 min 0.01 0.01
81°
2014 Apr 16, 02:25 36.25485° -75.59138° 30 min 0.01 0.02
119°
2014 Apr 16, 01:55 36.25495° -75.59160° 30 min 0.01 0.04
168°
2014 Apr 16, 01:25 36.25531° -75.59169° 30 min 0.03 0.01
210°
2014 Apr 16, 00:55 36.25537° -75.59164° 30 min 0.03 0.00
141°
2014 Apr 16, 00:25 36.25540° -75.59167° 30 min 0.03 0.00
270°
2014 Apr 15, 23:55 36.25540° -75.59164° 30 min 0.03 0.00
180°
2014 Apr 15, 23:25 36.25542° -75.59164° 30 min 0.03 0.00
2014 Apr 15, 22:55 36.25542° -75.59164° 30 min 0.03 0.00
2014 Apr 15, 22:25 36.25542° -75.59164° 30 min 0.03 0.00
180°
2014 Apr 15, 21:55 36.25544° -75.59164° 30 min 0.03 0.00
58°
2014 Apr 15, 21:25 36.25543° -75.59167° 30 min 0.03 0.01
258°
2014 Apr 15, 20:55 36.25544° -75.59160° 30 min 0.03 0.00
2014 Apr 15, 20:25 36.25542° -75.59160° 30 min 0.03 0.00
180°
2014 Apr 15, 19:55 36.25543° -75.59160° 30 min 0.03 0.51
282°
2014 Apr 15, 19:25 36.25452° -75.58646° 30 min 0.24 0.78
185°
2014 Apr 15, 18:55 36.26098° -75.58578° 30 min 0.46 0.87
40°
2014 Apr 15, 18:25 36.25543° -75.59156° 30 min 0.03 0.01
219°
2014 Apr 15, 17:55 36.25547° -75.59151° 30 min 0.03 0.19
359°
2014 Apr 15, 17:25 36.25386° -75.59149° 30 min 0.06 0.19
180°
2014 Apr 15, 16:55 36.25549° -75.59149° 30 min 0.03 0.00
313°
2014 Apr 15, 16:25 36.25547° -75.59148° 30 min 0.03 0.00
180°
2014 Apr 15, 15:55 36.25549° -75.59148° 30 min 0.03 0.01
145°
2014 Apr 15, 15:25 36.25558° -75.59156° 30 min 0.04 0.02
337°
2014 Apr 15, 14:55 36.25545° -75.59149° 30 min 0.03 0.01
283°
2014 Apr 15, 14:25 36.25544° -75.59143° 30 min 0.03 0.01
125°
2014 Apr 15, 13:55 36.25547° -75.59149° 30 min 0.03 0.00
270°
2014 Apr 15, 13:25 36.25547° -75.59148° 30 min 0.03 0.01
144°
2014 Apr 15, 12:55 36.25552° -75.59151° 30 min 0.04 0.01
61°
2014 Apr 15, 12:25 36.25549° -75.59158° 30 min 0.03 0.02
222°
2014 Apr 15, 11:55 36.25558° -75.59148° 30 min 0.04 0.02
33°
2014 Apr 15, 11:25 36.25543° -75.59160° 30 min 0.03 0.00
90°
2014 Apr 15, 10:55 36.25543° -75.59162° 30 min 0.03 0.00
2014 Apr 15, 10:25 36.25543° -75.59162° 30 min 0.03 0.02
352°
2014 Apr 15, 09:55 36.25530° -75.59160° 30 min 0.02 0.01
180°
2014 Apr 15, 09:25 36.25537° -75.59160° 30 min 0.03 0.00
141°
2014 Apr 15, 08:55 36.25540° -75.59162° 30 min 0.03 0.00
90°
2014 Apr 15, 08:25 36.25540° -75.59164° 30 min 0.03 0.00
270°
2014 Apr 15, 07:55 36.25540° -75.59162° 30 min 0.03 0.00
58°
2014 Apr 15, 07:25 36.25539° -75.59164° 30 min 0.03 0.00
238°
2014 Apr 15, 06:55 36.25540° -75.59162° 30 min 0.03 0.00
2014 Apr 15, 06:25 36.25540° -75.59162° 30 min 0.03 0.00
180°
2014 Apr 15, 05:55 36.25543° -75.59162° 30 min 0.03 0.01
257°
2014 Apr 15, 05:25 36.25544° -75.59156° 30 min 0.03 0.00
287°
2014 Apr 15, 04:55 36.25543° -75.59151° 30 min 0.03 0.00
122°
2014 Apr 15, 04:25 36.25544° -75.59154° 30 min 0.03 0.00
238°
2014 Apr 15, 03:55 36.25545° -75.59151° 30 min 0.03 0.00
90°
2014 Apr 15, 03:25 36.25545° -75.59156° 30 min 0.03 0.01
270°
2014 Apr 15, 02:55 36.25545° -75.59149° 30 min 0.03 0.01
90°
2014 Apr 15, 02:25 36.25545° -75.59156° 30 min 0.03 0.00
329°
2014 Apr 15, 01:55 36.25542° -75.59154° 30 min 0.03 0.00
90°
2014 Apr 15, 01:25 36.25542° -75.59156° 30 min 0.03 0.00
112°
2014 Apr 15, 00:55 36.25543° -75.59158° 30 min 0.03 0.00
133°
2014 Apr 15, 00:25 36.25544° -75.59160° 30 min 0.03 0.00
2014 Apr 14, 23:55 36.25544° -75.59160° 30 min 0.03 0.00
270°
2014 Apr 14, 23:25 36.25544° -75.59158° 30 min 0.03 0.00
238°
2014 Apr 14, 22:55 36.25545° -75.59156° 30 min 0.03 0.00
90°
2014 Apr 14, 22:25 36.25545° -75.59158° 30 min 0.03 0.00
2014 Apr 14, 21:55 36.25545° -75.59158° 30 min 0.03 0.00
90°
2014 Apr 14, 21:25 36.25545° -75.59160° 30 min 0.03 0.00
2014 Apr 14, 20:55 36.25542° -75.59160° 30 min 0.03 0.00
180°
2014 Apr 14, 20:25 36.25545° -75.59160° 30 min 0.03 0.01
222°
2014 Apr 14, 19:55 36.25549° -75.59156° 30 min 0.03 0.00
332°
2014 Apr 14, 19:25 36.25545° -75.59154° 30 min 0.03 0.00
90°
2014 Apr 14, 18:55 36.25545° -75.59158° 30 min 0.03 0.00
28°
2014 Apr 14, 18:25 36.25543° -75.59160° 30 min 0.03 0.00
270°
2014 Apr 14, 17:55 36.25543° -75.59158° 30 min 0.03 0.00
90°
2014 Apr 14, 17:25 36.25543° -75.59160° 30 min 0.03 0.01
270°
2014 Apr 14, 16:55 36.25543° -75.59154° 30 min 0.03 0.00
238°
2014 Apr 14, 16:25 36.25544° -75.59151° 30 min 0.03 0.03
353°
2014 Apr 14, 15:55 36.25517° -75.59148° 30 min 0.02 0.10
149°
2014 Apr 14, 15:25 36.25589° -75.59201° 30 min 0.06 0.08
320°
2014 Apr 14, 14:55 36.25541° -75.59151° 30 min 0.03 0.00
149°
2014 Apr 14, 14:25 36.25544° -75.59154° 30 min 0.03 0.00
316°
2014 Apr 14, 13:55 36.25542° -75.59151° 30 min 0.03 0.00
102°
2014 Apr 14, 13:25 36.25543° -75.59156° 30 min 0.03 0.00
180°
2014 Apr 14, 12:55 36.25544° -75.59156° 30 min 0.03 0.00
58°
2014 Apr 14, 12:25 36.25543° -75.59158° 30 min 0.03 0.00
2014 Apr 14, 11:55 36.25542° -75.59158° 30 min 0.03 0.00
270°
2014 Apr 14, 11:25 36.25542° -75.59156° 30 min 0.03 0.00
104°
2014 Apr 14, 10:55 36.25543° -75.59160° 30 min 0.03 0.00
227°
2014 Apr 14, 10:25 36.25544° -75.59158° 30 min 0.03 0.00
47°
2014 Apr 14, 09:55 36.25543° -75.59160° 30 min 0.03 0.00
2014 Apr 14, 09:25 36.25543° -75.59160° 30 min 0.03 0.00
31°
2014 Apr 14, 08:55 36.25540° -75.59162° 30 min 0.03 0.01
225°
2014 Apr 14, 08:25 36.25543° -75.59158° 30 min 0.03 0.00
180°
2014 Apr 14, 07:55 36.25544° -75.59158° 30 min 0.03 0.00
2014 Apr 14, 07:25 36.25543° -75.59158° 30 min 0.03 0.00
2014 Apr 14, 06:55 36.25542° -75.59158° 30 min 0.03 0.00
2014 Apr 14, 06:25 36.25542° -75.59158° 30 min 0.03 0.00
270°
2014 Apr 14, 05:55 36.25542° -75.59156° 30 min 0.03 0.01
204°
2014 Apr 14, 05:25 36.25546° -75.59154° 30 min 0.03 0.00
2014 Apr 14, 04:55 36.25545° -75.59154° 30 min 0.03 0.01
257°
2014 Apr 14, 04:25 36.25546° -75.59148° 30 min 0.03 0.01
270°
2014 Apr 14, 03:55 36.25546° -75.59141° 30 min 0.03 0.04
98°
2014 Apr 14, 03:25 36.25550° -75.59177° 30 min 0.04 0.04
282°
2014 Apr 14, 02:55 36.25544° -75.59141° 30 min 0.03 0.00
180°
2014 Apr 14, 02:25 36.25546° -75.59141° 30 min 0.03 0.00
2014 Apr 14, 01:55 36.25545° -75.59141° 30 min 0.03 0.00
2014 Apr 14, 01:25 36.25542° -75.59141° 30 min 0.03 0.00
90°
2014 Apr 14, 00:55 36.25542° -75.59143° 30 min 0.03 0.01
161°
2014 Apr 14, 00:25 36.25547° -75.59145° 30 min 0.03 0.00
2014 Apr 13, 23:55 36.25547° -75.59145° 30 min 0.03 0.00
70°
2014 Apr 13, 23:25 36.25546° -75.59149° 30 min 0.03 0.01
24°
2014 Apr 13, 22:55 36.25542° -75.59151° 30 min 0.03 0.00
180°
2014 Apr 13, 22:25 36.25545° -75.59151° 30 min 0.03 0.00
73°
2014 Apr 13, 21:55 36.25544° -75.59156° 30 min 0.03 0.00
90°
2014 Apr 13, 21:25 36.25544° -75.59158° 30 min 0.03 0.00
2014 Apr 13, 20:55 36.25543° -75.59158° 30 min 0.03 0.00
2014 Apr 13, 20:25 36.25542° -75.59158° 30 min 0.03 0.00
248°
2014 Apr 13, 19:55 36.25543° -75.59156° 30 min 0.03 0.00
90°
2014 Apr 13, 19:25 36.25543° -75.59158° 30 min 0.03 0.00
2014 Apr 13, 18:55 36.25543° -75.59158° 30 min 0.03 0.00
2014 Apr 13, 18:25 36.25541° -75.59158° 30 min 0.03 0.00
180°
2014 Apr 13, 17:55 36.25542° -75.59158° 30 min 0.03 0.01
302°
2014 Apr 13, 17:25 36.25540° -75.59154° 30 min 0.03 0.00
122°
2014 Apr 13, 16:55 36.25541° -75.59156° 30 min 0.03 0.00
238°
2014 Apr 13, 16:25 36.25542° -75.59154° 30 min 0.03 0.00
302°
2014 Apr 13, 15:55 36.25541° -75.59151° 30 min 0.03 0.01
330°
2014 Apr 13, 15:25 36.25536° -75.59148° 30 min 0.03 0.01
204°
2014 Apr 13, 14:55 36.25540° -75.59145° 30 min 0.03 0.00
180°
2014 Apr 13, 14:25 36.25541° -75.59145° 30 min 0.03 0.00
2014 Apr 13, 13:55 36.25537° -75.59145° 30 min 0.03 0.00
180°
2014 Apr 13, 13:25 36.25539° -75.59145° 30 min 0.03 0.00
141°
2014 Apr 13, 12:55 36.25541° -75.59148° 30 min 0.03 0.00
180°
2014 Apr 13, 12:25 36.25542° -75.59148° 30 min 0.03 0.00
47°
2014 Apr 13, 11:55 36.25541° -75.59149° 30 min 0.03 0.00
180°
2014 Apr 13, 11:25 36.25542° -75.59149° 30 min 0.03 0.00
90°
2014 Apr 13, 10:55 36.25542° -75.59151° 30 min 0.03 0.00
112°
2014 Apr 13, 10:25 36.25543° -75.59154° 30 min 0.03 0.00
2014 Apr 13, 09:55 36.25541° -75.59154° 30 min 0.03 0.00
2014 Apr 13, 09:25 36.25537° -75.59154° 30 min 0.03 0.00
78°
2014 Apr 13, 08:55 36.25537° -75.59158° 30 min 0.03 0.00
270°
2014 Apr 13, 08:25 36.25537° -75.59154° 30 min 0.03 0.00
2014 Apr 13, 07:55 36.25537° -75.59154° 30 min 0.03 0.01
258°
2014 Apr 13, 07:25 36.25539° -75.59143° 30 min 0.03 0.01
50°
2014 Apr 13, 06:55 36.25534° -75.59149° 30 min 0.03 0.01
324°
2014 Apr 13, 06:25 36.25530° -75.59145° 30 min 0.02 0.00
287°
2014 Apr 13, 05:55 36.25529° -75.59141° 30 min 0.02 0.01
2014 Apr 13, 05:25 36.25520° -75.59141° 30 min 0.02 0.01
133°
2014 Apr 13, 04:55 36.25524° -75.59145° 30 min 0.02 0.00
253°
2014 Apr 13, 04:25 36.25525° -75.59141° 30 min 0.02 0.00
302°
2014 Apr 13, 03:55 36.25524° -75.59138° 30 min 0.02 0.00
2014 Apr 13, 03:25 36.25524° -75.59138° 30 min 0.02 0.00
180°
2014 Apr 13, 02:55 36.25525° -75.59138° 30 min 0.02 0.00
90°
2014 Apr 13, 02:25 36.25525° -75.59141° 30 min 0.02 0.00
112°
2014 Apr 13, 01:55 36.25526° -75.59143° 30 min 0.02 0.00
2014 Apr 13, 01:25 36.25523° -75.59143° 30 min 0.02 0.00
58°
2014 Apr 13, 00:55 36.25521° -75.59145° 30 min 0.02 0.00
141°
2014 Apr 13, 00:25 36.25524° -75.59148° 30 min 0.02 0.00
110°
2014 Apr 12, 23:55 36.25525° -75.59151° 30 min 0.02 0.00
90°
2014 Apr 12, 23:25 36.25525° -75.59156° 30 min 0.02 0.00
149°
2014 Apr 12, 22:55 36.25528° -75.59158° 30 min 0.02 0.01
135°
2014 Apr 12, 22:25 36.25531° -75.59162° 30 min 0.02 0.01
217°
2014 Apr 12, 21:55 36.25537° -75.59156° 30 min 0.03 0.01
50°
2014 Apr 12, 21:25 36.25533° -75.59162° 30 min 0.03 0.01
302°
2014 Apr 12, 20:55 36.25529° -75.59154° 30 min 0.02 0.01
122°
2014 Apr 12, 20:25 36.25532° -75.59160° 30 min 0.03 0.00
270°
2014 Apr 12, 19:55 36.25532° -75.59158° 30 min 0.02 0.01
150°
2014 Apr 12, 19:25 36.25537° -75.59162° 30 min 0.03 0.00
270°
2014 Apr 12, 18:55 36.25537° -75.59160° 30 min 0.03 0.00
90°
2014 Apr 12, 18:25 36.25537° -75.59162° 30 min 0.03 0.00
2014 Apr 12, 17:55 36.25536° -75.59162° 30 min 0.03 0.00
122°
2014 Apr 12, 17:25 36.25537° -75.59164° 30 min 0.03 0.01
297°
2014 Apr 12, 16:55 36.25533° -75.59156° 30 min 0.03 0.00
127°
2014 Apr 12, 16:25 36.25536° -75.59160° 30 min 0.03 0.00
213°
2014 Apr 12, 15:55 36.25537° -75.59158° 30 min 0.03 0.01
248°
2014 Apr 12, 15:25 36.25540° -75.59151° 30 min 0.03 0.00
238°
2014 Apr 12, 14:55 36.25541° -75.59149° 30 min 0.03 0.00
58°
2014 Apr 12, 14:25 36.25540° -75.59151° 30 min 0.03 0.00
180°
2014 Apr 12, 13:55 36.25542° -75.59151° 30 min 0.03 0.00
2014 Apr 12, 13:25 36.25542° -75.59151° 30 min 0.03 0.01
338°
2014 Apr 12, 12:55 36.25537° -75.59149° 30 min 0.03 0.01
180°
2014 Apr 12, 12:25 36.25543° -75.59149° 30 min 0.03 0.00
63°
2014 Apr 12, 11:55 36.25541° -75.59154° 30 min 0.03 0.00
90°
2014 Apr 12, 11:25 36.25541° -75.59156° 30 min 0.03 0.01
313°
2014 Apr 12, 10:55 36.25537° -75.59151° 30 min 0.03 0.01
133°
2014 Apr 12, 10:25 36.25541° -75.59156° 30 min 0.03 0.00
180°
2014 Apr 12, 09:55 36.25544° -75.59156° 30 min 0.03 0.00
44°
2014 Apr 12, 09:25 36.25542° -75.59158° 30 min 0.03 0.00
270°
2014 Apr 12, 08:55 36.25542° -75.59156° 30 min 0.03 0.00
2014 Apr 12, 08:25 36.25542° -75.59156° 30 min 0.03 0.00
180°
2014 Apr 12, 07:55 36.25544° -75.59156° 30 min 0.03 0.01
80°
2014 Apr 12, 07:25 36.25543° -75.59164° 30 min 0.03 0.01
294°
2014 Apr 12, 06:55 36.25540° -75.59156° 30 min 0.03 0.01
222°
2014 Apr 12, 06:25 36.25547° -75.59148° 30 min 0.03 0.00
180°
2014 Apr 12, 05:55 36.25549° -75.59148° 30 min 0.03 0.00
270°
2014 Apr 12, 05:25 36.25549° -75.59143° 30 min 0.03 0.00
270°
2014 Apr 12, 04:55 36.25549° -75.59141° 30 min 0.03 0.01
261°
2014 Apr 12, 04:25 36.25549° -75.59135° 30 min 0.03 0.01
314°
2014 Apr 12, 03:55 36.25544° -75.59128° 30 min 0.03 0.01
180°
2014 Apr 12, 03:25 36.25549° -75.59128° 30 min 0.04 0.00
327°
2014 Apr 12, 02:55 36.25547° -75.59126° 30 min 0.03 0.00
133°
2014 Apr 12, 02:25 36.25549° -75.59128° 30 min 0.03 0.00
180°
2014 Apr 12, 01:55 36.25549° -75.59128° 30 min 0.04 0.00
270°
2014 Apr 12, 01:25 36.25549° -75.59126° 30 min 0.04 0.00
33°
2014 Apr 12, 00:55 36.25547° -75.59128° 30 min 0.03 0.00
117°
2014 Apr 12, 00:25 36.25549° -75.59132° 30 min 0.03 0.01
90°
2014 Apr 11, 23:55 36.25549° -75.59138° 30 min 0.03 0.00
90°
2014 Apr 11, 23:25 36.25549° -75.59141° 30 min 0.03 0.00
90°
2014 Apr 11, 22:55 36.25549° -75.59145° 30 min 0.03 0.00
76°
2014 Apr 11, 22:25 36.25549° -75.59149° 30 min 0.03 0.01
109°
2014 Apr 11, 21:55 36.25550° -75.59156° 30 min 0.04 0.00
329°
2014 Apr 11, 21:25 36.25547° -75.59154° 30 min 0.03 0.00
2014 Apr 11, 20:55 36.25544° -75.59154° 30 min 0.03 0.00
2014 Apr 11, 20:25 36.25542° -75.59154° 30 min 0.03 0.00
180°
2014 Apr 11, 19:55 36.25544° -75.59154° 30 min 0.03 0.00
90°
2014 Apr 11, 19:25 36.25544° -75.59156° 30 min 0.03 0.01
2014 Apr 11, 18:55 36.25536° -75.59156° 30 min 0.03 0.01
204°
2014 Apr 11, 18:25 36.25544° -75.59151° 30 min 0.03 0.01
324°
2014 Apr 11, 17:55 36.25540° -75.59148° 30 min 0.03 0.00
2014 Apr 11, 17:25 36.25540° -75.59148° 30 min 0.03 0.00
219°
2014 Apr 11, 16:55 36.25542° -75.59145° 30 min 0.03 0.00
2014 Apr 11, 16:25 36.25539° -75.59145° 30 min 0.03 0.00
270°
2014 Apr 11, 15:55 36.25539° -75.59141° 30 min 0.03 0.01
302°
2014 Apr 11, 15:25 36.25536° -75.59135° 30 min 0.03 0.00
180°
2014 Apr 11, 14:55 36.25537° -75.59135° 30 min 0.03 0.01
302°
2014 Apr 11, 14:25 36.25532° -75.59124° 30 min 0.03 0.01
158°
2014 Apr 11, 13:55 36.25537° -75.59126° 30 min 0.03 0.00
180°
2014 Apr 11, 13:25 36.25539° -75.59126° 30 min 0.03 0.00
180°
2014 Apr 11, 12:55 36.25540° -75.59126° 30 min 0.03 0.00
152°
2014 Apr 11, 12:25 36.25542° -75.59128° 30 min 0.03 0.00
2014 Apr 11, 11:55 36.25541° -75.59128° 30 min